createdAt,value
2023-06-02T00:03:31.328Z,5.60
2023-06-02T00:07:34.808Z,5.80
2023-06-02T00:11:40.067Z,6.10
2023-06-02T00:15:44.631Z,4.90
2023-06-02T00:19:48.637Z,4.20
2023-06-02T00:23:52.111Z,5.00
2023-06-02T00:27:55.817Z,5.00
2023-06-02T00:31:59.290Z,5.20
2023-06-02T00:36:03.260Z,4.90
2023-06-02T00:40:08.332Z,4.90
2023-06-02T00:44:11.781Z,4.90
2023-06-02T00:48:15.209Z,5.30
2023-06-02T00:52:20.306Z,5.50
2023-06-02T00:56:24.548Z,5.20
2023-06-02T01:00:28.721Z,5.50
2023-06-02T01:04:33.038Z,8.20
2023-06-02T01:08:40.513Z,5.80
2023-06-02T01:12:46.272Z,8.00
2023-06-02T01:16:53.182Z,5.70
2023-06-02T01:21:02.409Z,5.80
2023-06-02T01:25:21.132Z,5.70
2023-06-02T01:29:24.513Z,5.90
2023-06-02T01:33:57.008Z,5.80
2023-06-02T01:38:02.532Z,6.40
2023-06-02T01:42:08.676Z,5.10
2023-06-02T01:46:13.380Z,5.90
2023-06-02T01:50:16.792Z,7.90
2023-06-02T01:54:20.316Z,6.00
2023-06-02T01:58:24.219Z,5.40
2023-06-02T02:02:27.697Z,5.80
2023-06-02T02:06:35.739Z,7.50
2023-06-02T02:10:39.126Z,4.50
2023-06-02T02:14:42.652Z,5.90
2023-06-02T02:18:47.537Z,6.50
2023-06-02T02:22:51.204Z,6.00
2023-06-02T02:26:55.255Z,4.90
2023-06-02T02:31:01.182Z,5.10
2023-06-02T02:35:09.155Z,6.90
2023-06-02T02:39:13.737Z,5.40
2023-06-02T02:43:19.652Z,6.00
2023-06-02T02:47:23.498Z,6.50
2023-06-02T02:51:27.099Z,6.00
2023-06-02T02:55:34.090Z,5.80
2023-06-02T02:59:37.604Z,5.40
2023-06-02T03:03:42.854Z,5.60
2023-06-02T03:07:48.096Z,5.30
2023-06-02T03:11:51.949Z,6.20
2023-06-02T03:15:56.083Z,6.40
2023-06-02T03:20:00.078Z,6.60
2023-06-02T03:24:04.442Z,5.70
2023-06-02T03:28:14.603Z,5.30
2023-06-02T03:32:18.125Z,7.20
2023-06-02T03:36:23.900Z,6.10
2023-06-02T03:40:27.335Z,4.90
2023-06-02T03:44:31.767Z,5.90
2023-06-02T03:48:37.008Z,5.70
2023-06-02T03:52:41.031Z,6.10
2023-06-02T03:56:45.679Z,5.90
2023-06-02T04:00:49.815Z,6.10
2023-06-02T04:04:53.981Z,6.10
2023-06-02T04:09:00.028Z,6.50
2023-06-02T04:13:04.069Z,6.00
2023-06-02T04:17:09.066Z,5.60
2023-06-02T04:21:12.634Z,5.10
2023-06-02T04:25:17.872Z,4.90
2023-06-02T04:29:21.425Z,5.20
2023-06-02T04:33:25.519Z,5.90
2023-06-02T04:37:29.274Z,5.50
2023-06-02T04:41:45.899Z,4.90
2023-06-02T04:45:52.116Z,5.90
2023-06-02T04:49:58.816Z,5.60
2023-06-02T04:54:02.890Z,4.60
2023-06-02T04:58:07.043Z,4.50
2023-06-02T05:02:12.143Z,5.00
2023-06-02T05:06:16.633Z,5.80
2023-06-02T05:10:21.468Z,4.60
2023-06-02T05:14:25.794Z,5.40
2023-06-02T05:18:30.579Z,6.80
2023-06-02T05:22:35.893Z,5.20
2023-06-02T05:26:40.609Z,5.80
2023-06-02T05:30:45.413Z,5.00
2023-06-02T05:34:49.803Z,5.60
2023-06-02T05:38:54.160Z,4.60
2023-06-02T05:42:59.959Z,5.10
2023-06-02T05:47:05.245Z,5.60
2023-06-02T05:51:09.582Z,5.70
2023-06-02T05:55:13.177Z,5.80
2023-06-02T05:59:17.708Z,5.50
2023-06-02T06:03:21.363Z,5.70
2023-06-02T06:07:26.786Z,5.70
2023-06-02T06:11:31.358Z,5.60
2023-06-02T06:15:34.779Z,5.90
2023-06-02T06:19:39.339Z,5.30
2023-06-02T06:23:43.372Z,5.70
2023-06-02T06:27:49.983Z,4.80
2023-06-02T06:31:54.705Z,5.60
2023-06-02T06:35:58.355Z,4.70
2023-06-02T06:40:02.533Z,4.70
2023-06-02T06:44:07.673Z,4.50
2023-06-02T06:48:11.908Z,4.80
2023-06-02T06:52:16.409Z,6.90
2023-06-02T06:56:20.288Z,5.90
2023-06-02T07:00:24.124Z,5.60
2023-06-02T07:04:32.182Z,4.70
2023-06-02T07:12:46.236Z,4.90
2023-06-02T07:16:55.630Z,3.90
2023-06-02T07:20:59.184Z,6.30
2023-06-02T07:25:04.334Z,4.50
2023-06-02T07:29:08.460Z,4.10
2023-06-02T07:33:13.321Z,6.80
2023-06-02T07:37:17.234Z,5.60
2023-06-02T07:41:22.158Z,4.10
2023-06-02T07:45:27.171Z,3.70
2023-06-02T07:49:30.679Z,4.10
2023-06-02T07:53:34.240Z,3.40
2023-06-02T07:57:37.705Z,4.40
2023-06-02T08:01:41.258Z,4.00
2023-06-02T08:05:46.256Z,4.30
2023-06-02T08:09:50.009Z,4.60
2023-06-02T08:13:53.434Z,4.70
2023-06-02T08:17:56.866Z,4.60
2023-06-02T08:22:02.300Z,5.50
2023-06-02T08:26:05.942Z,4.60
2023-06-02T08:30:11.516Z,4.10
2023-06-02T08:34:15.100Z,5.50
2023-06-02T08:38:21.565Z,6.60
2023-06-02T08:42:27.991Z,5.40
2023-06-02T08:46:32.362Z,6.50
2023-06-02T08:50:41.786Z,5.40
2023-06-02T08:54:48.023Z,6.00
2023-06-02T08:58:54.507Z,5.40
2023-06-02T09:02:58.126Z,5.00
2023-06-02T09:07:24.607Z,5.50
2023-06-02T09:11:29.474Z,6.10
2023-06-02T09:15:37.090Z,5.30
2023-06-02T09:19:51.347Z,6.20
2023-06-02T09:24:12.078Z,5.50
2023-06-02T09:28:18.323Z,5.60
2023-06-02T09:32:22.404Z,5.70
2023-06-02T09:36:31.178Z,5.60
2023-06-02T09:40:36.560Z,5.80
2023-06-02T09:45:02.900Z,5.30
2023-06-02T09:49:07.230Z,4.60
2023-06-02T09:53:15.057Z,5.70
2023-06-02T09:57:18.705Z,4.40
2023-06-02T10:01:22.877Z,5.80
2023-06-02T10:05:31.155Z,5.10
2023-06-02T10:10:12.150Z,5.20
2023-06-02T10:14:23.817Z,5.10
2023-06-02T10:18:55.486Z,6.40
2023-06-02T10:23:16.475Z,4.70
2023-06-02T10:27:35.738Z,4.60
2023-06-02T10:31:41.240Z,5.00
2023-06-02T10:36:00.514Z,5.40
2023-06-02T10:40:05.230Z,5.00
2023-06-02T10:44:28.786Z,10.30
2023-06-02T10:48:43.757Z,5.60
2023-06-02T10:53:15.283Z,5.20
2023-06-02T10:57:52.255Z,5.70
2023-06-02T11:01:55.854Z,7.70
2023-06-02T11:06:29.310Z,6.90
2023-06-02T11:10:59.915Z,5.50
2023-06-02T11:15:06.883Z,4.80
2023-06-02T11:19:10.363Z,4.50
2023-06-02T11:23:14.452Z,4.50
2023-06-02T11:27:36.449Z,4.50
2023-06-02T11:31:49.038Z,5.00
2023-06-02T11:35:59.803Z,5.90
2023-06-02T11:40:07.285Z,7.80
2023-06-02T11:44:12.461Z,5.60
2023-06-02T11:48:16.548Z,6.70
2023-06-02T11:52:21.771Z,4.30
2023-06-02T11:56:28.187Z,4.80
2023-06-02T12:00:31.957Z,6.50
2023-06-02T12:04:44.337Z,4.50
2023-06-02T12:08:47.940Z,3.70
2023-06-02T12:12:51.366Z,5.20
2023-06-02T12:17:06.174Z,5.20
2023-06-02T12:21:28.188Z,8.20
2023-06-02T12:25:33.904Z,4.00
2023-06-02T12:29:37.685Z,3.70
2023-06-02T12:33:42.300Z,3.60
2023-06-02T12:37:45.752Z,3.80
2023-06-02T12:41:49.889Z,3.50
2023-06-02T12:45:53.563Z,3.20
2023-06-02T12:49:58.093Z,5.10
2023-06-02T12:54:03.483Z,3.60
2023-06-02T12:58:07.896Z,4.20
2023-06-02T13:02:14.755Z,4.60
2023-06-02T13:06:18.982Z,4.00
2023-06-02T13:10:25.013Z,4.00
2023-06-02T13:14:28.677Z,4.10
2023-06-02T13:18:32.788Z,2.40
2023-06-02T13:22:36.542Z,2.00
2023-06-02T13:26:40.264Z,2.70
2023-06-02T13:30:43.762Z,2.60
2023-06-02T13:34:58.895Z,2.40
2023-06-02T13:39:02.441Z,2.30
2023-06-02T13:43:06.545Z,2.70
2023-06-02T13:47:10.295Z,2.50
2023-06-02T13:51:14.896Z,2.70
2023-06-02T13:55:18.965Z,2.10
2023-06-02T13:59:22.460Z,1.80
2023-06-02T14:03:27.228Z,1.80
2023-06-02T14:07:32.046Z,2.80
2023-06-02T14:11:40.376Z,1.90
2023-06-02T14:15:46.507Z,2.40
2023-06-02T14:20:27.363Z,2.40
2023-06-02T14:24:35.764Z,12.00
2023-06-02T14:28:48.015Z,4.60
2023-06-02T14:32:51.947Z,3.30
2023-06-02T14:36:57.746Z,2.60
2023-06-02T14:41:01.329Z,1.90
2023-06-02T14:45:16.711Z,2.00
2023-06-02T14:49:20.588Z,1.80
2023-06-02T14:53:24.244Z,1.90
2023-06-02T14:57:30.874Z,1.80
2023-06-02T15:01:34.702Z,3.10
2023-06-02T15:05:40.851Z,3.40
2023-06-02T15:09:46.294Z,3.70
2023-06-02T15:13:54.418Z,2.70
2023-06-02T15:17:58.209Z,2.20
2023-06-02T15:22:11.600Z,3.70
2023-06-02T15:26:21.168Z,2.70
2023-06-02T15:30:32.388Z,2.30
2023-06-02T15:34:36.171Z,2.30
2023-06-02T15:38:41.616Z,2.70
2023-06-02T15:42:51.373Z,2.30
2023-06-02T15:46:56.452Z,2.10
2023-06-02T15:51:00.839Z,2.30
2023-06-02T15:55:05.201Z,2.80
2023-06-02T15:59:14.107Z,4.50
2023-06-02T16:03:19.495Z,4.40
2023-06-02T16:07:23.388Z,2.00
2023-06-02T16:11:37.547Z,3.70
2023-06-02T16:15:44.679Z,4.10
2023-06-02T16:19:49.589Z,2.40
2023-06-02T16:23:54.476Z,3.30
2023-06-02T16:28:13.481Z,3.20
2023-06-02T16:32:17.385Z,2.70
2023-06-02T16:36:34.844Z,3.10
2023-06-02T16:40:56.476Z,2.80
2023-06-02T16:45:28.333Z,1.90
2023-06-02T16:49:40.249Z,2.70
2023-06-02T16:58:41.367Z,1.90
2023-06-02T17:03:33.326Z,2.00
2023-06-02T17:08:16.615Z,1.70
2023-06-02T17:12:35.693Z,1.90
2023-06-02T17:16:48.362Z,2.20
2023-06-02T17:26:08.438Z,2.40
2023-06-02T17:30:24.418Z,2.20
2023-06-02T17:58:06.100Z,2.00
2023-06-02T18:04:53.250Z,3.10
2023-06-02T18:09:14.696Z,2.70
2023-06-02T18:14:00.151Z,2.50
2023-06-02T18:18:32.569Z,2.80
2023-06-02T18:22:37.494Z,2.30
2023-06-02T18:26:41.825Z,2.60
2023-06-02T18:30:46.196Z,2.30
2023-06-02T18:34:50.106Z,1.90
2023-06-02T18:38:56.678Z,1.80
2023-06-02T18:43:02.296Z,1.70
2023-06-02T18:47:39.193Z,2.90
2023-06-02T18:53:42.415Z,2.40
2023-06-02T18:59:10.517Z,1.60
2023-06-02T19:05:32.917Z,2.60
2023-06-02T19:11:04.310Z,1.90
2023-06-02T19:16:06.989Z,2.00
2023-06-02T19:26:21.981Z,8.40
2023-06-02T19:34:45.830Z,3.80
2023-06-02T19:37:02.640Z,5.60
2023-06-02T19:50:14.189Z,7.70
2023-06-02T20:03:50.758Z,8.60
2023-06-02T20:08:39.595Z,6.10
2023-06-02T20:13:17.215Z,9.80
2023-06-02T20:18:05.754Z,8.00
2023-06-02T20:24:38.777Z,8.70
2023-06-02T20:33:32.466Z,7.70
2023-06-02T21:13:32.563Z,6.10
2023-06-02T21:34:46.606Z,4.40
2023-06-02T21:39:32.508Z,4.70
2023-06-02T21:44:03.018Z,4.90
2023-06-02T21:48:53.019Z,4.30
2023-06-02T21:54:07.667Z,4.50
2023-06-02T22:00:19.194Z,4.30
2023-06-02T22:17:35.022Z,4.70
2023-06-02T22:23:18.806Z,3.50
2023-06-02T22:34:57.941Z,3.30
2023-06-02T22:38:40.712Z,3.70
2023-06-02T22:42:08.461Z,3.60
2023-06-02T22:47:12.967Z,3.10
2023-06-02T22:53:00.955Z,3.10
2023-06-02T22:59:33.565Z,2.90
2023-06-02T23:03:32.489Z,3.30
2023-06-02T23:08:26.604Z,3.60
2023-06-02T23:13:28.138Z,4.60
2023-06-02T23:20:51.767Z,4.60
2023-06-02T23:25:00.999Z,4.20
2023-06-02T23:30:17.470Z,3.40
2023-06-02T23:42:20.947Z,3.60
2023-06-02T23:47:50.371Z,4.00
2023-06-02T23:52:09.854Z,6.10
2023-06-02T23:57:08.385Z,3.80
